createdAt,value
2022-10-05T00:00:22.840Z,10.77
2022-10-05T00:02:52.414Z,10.73
2022-10-05T00:05:28.832Z,10.76
2022-10-05T00:07:59.278Z,10.77
2022-10-05T00:10:27.502Z,10.76
2022-10-05T00:12:55.994Z,10.77
2022-10-05T00:15:24.317Z,10.77
2022-10-05T00:17:52.555Z,10.80
2022-10-05T00:20:25.418Z,10.84
2022-10-05T00:22:58.783Z,10.84
2022-10-05T00:25:27.112Z,10.89
2022-10-05T00:27:57.920Z,10.95
2022-10-05T00:30:27.974Z,10.95
2022-10-05T00:32:59.493Z,10.91
2022-10-05T00:35:29.291Z,10.91
2022-10-05T00:37:59.763Z,10.92
2022-10-05T00:40:36.984Z,10.92
2022-10-05T00:43:20.473Z,10.91
2022-10-05T00:45:51.182Z,10.89
2022-10-05T00:48:26.798Z,10.88
2022-10-05T00:51:14.462Z,10.83
2022-10-05T00:53:51.296Z,10.78
2022-10-05T00:56:32.763Z,10.81
2022-10-05T00:59:10.502Z,10.81
2022-10-05T01:01:43.920Z,10.80
2022-10-05T01:04:18.302Z,10.83
2022-10-05T01:06:55.110Z,10.81
2022-10-05T01:09:31.509Z,10.81
2022-10-05T01:12:05.179Z,10.85
2022-10-05T01:14:37.838Z,10.89
2022-10-05T01:17:08.921Z,10.89
2022-10-05T01:19:52.647Z,10.95
2022-10-05T01:22:31.231Z,10.92
2022-10-05T01:25:11.208Z,10.95
2022-10-05T01:27:43.488Z,10.95
2022-10-05T01:30:15.105Z,10.94
2022-10-05T01:32:47.091Z,10.95
2022-10-05T01:35:25.179Z,11.01
2022-10-05T01:38:01.641Z,11.01
2022-10-05T01:40:35.389Z,10.99
2022-10-05T01:43:12.774Z,10.98
2022-10-05T01:45:49.545Z,10.95
2022-10-05T01:48:22.151Z,10.97
2022-10-05T01:50:57.889Z,10.98
2022-10-05T01:53:32.947Z,10.95
2022-10-05T01:56:07.493Z,10.94
2022-10-05T01:58:42.714Z,10.92
2022-10-05T02:01:14.957Z,10.91
2022-10-05T02:03:46.901Z,10.87
2022-10-05T02:06:19.916Z,10.85
2022-10-05T02:08:49.899Z,10.80
2022-10-05T02:11:18.236Z,10.80
2022-10-05T02:13:51.823Z,10.76
2022-10-05T02:16:24.504Z,10.71
2022-10-05T02:18:55.774Z,10.70
2022-10-05T02:21:24.794Z,10.67
2022-10-05T02:23:56.800Z,10.66
2022-10-05T02:26:25.846Z,10.63
2022-10-05T02:29:00.857Z,10.61
2022-10-05T02:31:31.955Z,10.59
2022-10-05T02:34:25.434Z,10.59
2022-10-05T02:37:01.262Z,10.59
2022-10-05T02:39:36.543Z,10.56
2022-10-05T02:42:09.977Z,10.55
2022-10-05T02:44:46.978Z,10.55
2022-10-05T02:47:19.763Z,10.53
2022-10-05T02:49:52.029Z,10.49
2022-10-05T02:52:23.354Z,10.49
2022-10-05T02:54:55.612Z,10.49
2022-10-05T02:57:31.543Z,10.46
2022-10-05T03:00:05.584Z,10.47
2022-10-05T03:02:37.724Z,10.47
2022-10-05T03:05:14.068Z,10.49
2022-10-05T03:07:50.277Z,10.50
2022-10-05T03:10:28.178Z,10.50
2022-10-05T03:13:02.034Z,10.52
2022-10-05T03:15:46.391Z,10.52
2022-10-05T03:18:21.830Z,10.52
2022-10-05T03:20:56.036Z,10.56
2022-10-05T03:23:31.852Z,10.59
2022-10-05T03:26:11.765Z,10.57
2022-10-05T03:28:46.107Z,10.57
2022-10-05T03:31:19.652Z,10.57
2022-10-05T03:33:50.219Z,10.59
2022-10-05T03:36:24.354Z,10.59
2022-10-05T03:38:59.984Z,10.59
2022-10-05T03:41:32.074Z,10.56
2022-10-05T03:44:11.355Z,10.60
2022-10-05T03:46:52.113Z,10.59
2022-10-05T03:49:25.412Z,10.56
2022-10-05T03:52:00.107Z,10.55
2022-10-05T03:54:32.086Z,10.52
2022-10-05T03:57:04.678Z,10.50
2022-10-05T03:59:35.982Z,10.50
2022-10-05T04:02:08.950Z,10.47
2022-10-05T04:04:41.575Z,10.46
2022-10-05T04:07:25.209Z,10.45
2022-10-05T04:09:54.027Z,10.46
2022-10-05T04:12:27.238Z,10.46
2022-10-05T04:15:02.814Z,10.43
2022-10-05T04:17:35.748Z,10.46
2022-10-05T04:20:06.180Z,10.46
2022-10-05T04:22:40.618Z,10.47
2022-10-05T04:25:16.671Z,10.46
2022-10-05T04:27:48.644Z,10.46
2022-10-05T04:30:19.177Z,10.45
2022-10-05T04:32:53.752Z,10.47
2022-10-05T04:35:45.295Z,10.52
2022-10-05T04:38:28.582Z,10.53
2022-10-05T04:41:07.865Z,10.52
2022-10-05T04:43:45.587Z,10.55
2022-10-05T04:46:25.017Z,10.57
2022-10-05T04:49:17.492Z,10.61
2022-10-05T04:51:51.761Z,10.60
2022-10-05T04:54:25.326Z,10.60
2022-10-05T04:56:56.317Z,10.59
2022-10-05T04:59:41.117Z,10.60
2022-10-05T05:02:17.157Z,10.60
2022-10-05T05:05:06.687Z,10.57
2022-10-05T05:07:44.564Z,10.59
2022-10-05T05:10:40.364Z,10.63
2022-10-05T05:13:25.390Z,10.60
2022-10-05T05:15:55.544Z,10.64
2022-10-05T05:18:44.159Z,10.67
2022-10-05T05:21:22.112Z,10.71
2022-10-05T05:23:52.426Z,10.87
2022-10-05T05:26:25.000Z,11.05
2022-10-05T05:29:05.527Z,11.16
2022-10-05T05:31:42.451Z,11.25
2022-10-05T05:34:18.611Z,11.32
2022-10-05T05:36:54.694Z,11.40
2022-10-05T05:39:28.255Z,11.42
2022-10-05T05:42:01.871Z,11.52
2022-10-05T05:44:37.803Z,11.59
2022-10-05T05:47:16.370Z,11.62
2022-10-05T05:49:56.127Z,11.64
2022-10-05T05:52:29.968Z,11.70
2022-10-05T05:55:02.171Z,11.73
2022-10-05T05:57:33.103Z,11.74
2022-10-05T06:00:07.434Z,11.69
2022-10-05T06:02:39.879Z,11.62
2022-10-05T06:05:19.055Z,11.56
2022-10-05T06:07:49.198Z,11.50
2022-10-05T06:10:28.263Z,11.47
2022-10-05T06:13:03.505Z,11.46
2022-10-05T06:15:36.360Z,11.45
2022-10-05T06:18:07.837Z,11.47
2022-10-05T06:20:40.979Z,11.49
2022-10-05T06:23:17.031Z,11.52
2022-10-05T06:25:58.421Z,11.57
2022-10-05T06:28:35.124Z,11.63
2022-10-05T06:31:14.838Z,11.69
2022-10-05T06:33:50.483Z,11.70
2022-10-05T06:36:25.269Z,11.71
2022-10-05T06:39:19.038Z,11.74
2022-10-05T06:42:02.466Z,11.80
2022-10-05T06:44:35.746Z,11.84
2022-10-05T06:47:10.549Z,11.87
2022-10-05T06:49:44.872Z,11.93
2022-10-05T06:52:24.607Z,12.01
2022-10-05T06:55:13.925Z,12.03
2022-10-05T06:57:58.087Z,12.07
2022-10-05T07:00:30.499Z,12.08
2022-10-05T07:03:06.420Z,12.17
2022-10-05T07:06:02.839Z,12.24
2022-10-05T07:08:44.857Z,12.32
2022-10-05T07:11:22.999Z,12.45
2022-10-05T07:14:14.489Z,12.55
2022-10-05T07:17:00.432Z,12.65
2022-10-05T07:19:36.736Z,12.77
2022-10-05T07:22:26.623Z,12.91
2022-10-05T07:25:10.779Z,12.89
2022-10-05T07:28:37.655Z,12.90
2022-10-05T07:31:20.116Z,13.01
2022-10-05T07:33:55.392Z,13.19
2022-10-05T07:36:49.713Z,13.40
2022-10-05T07:39:42.182Z,13.72
2022-10-05T07:42:24.947Z,14.10
2022-10-05T07:44:56.403Z,14.38
2022-10-05T07:47:32.315Z,14.37
2022-10-05T07:50:05.033Z,14.38
2022-10-05T07:52:43.192Z,14.44
2022-10-05T07:55:19.150Z,14.48
2022-10-05T07:57:55.083Z,14.60
2022-10-05T08:00:28.014Z,14.65
2022-10-05T08:03:00.186Z,14.64
2022-10-05T08:05:33.579Z,14.65
2022-10-05T08:08:12.438Z,14.68
2022-10-05T08:10:45.308Z,14.77
2022-10-05T08:13:17.934Z,14.85
2022-10-05T08:15:53.892Z,14.98
2022-10-05T08:18:38.599Z,15.15
2022-10-05T08:21:17.194Z,15.44
2022-10-05T08:23:50.203Z,15.74
2022-10-05T08:26:25.559Z,15.84
2022-10-05T08:29:02.641Z,15.85
2022-10-05T08:31:34.319Z,16.06
2022-10-05T08:34:11.486Z,16.39
2022-10-05T08:36:55.934Z,16.67
2022-10-05T08:39:27.292Z,16.70
2022-10-05T08:42:20.555Z,16.90
2022-10-05T08:45:08.186Z,16.97
2022-10-05T08:48:09.727Z,16.97
2022-10-05T08:50:56.422Z,16.98
2022-10-05T08:53:39.415Z,16.97
2022-10-05T08:56:29.629Z,17.01
2022-10-05T08:59:14.643Z,17.05
2022-10-05T09:01:57.993Z,17.05
2022-10-05T09:04:42.339Z,17.16
2022-10-05T09:07:36.092Z,17.10
2022-10-05T09:10:46.980Z,16.77
2022-10-05T09:13:25.409Z,16.79
2022-10-05T09:16:31.562Z,17.00
2022-10-05T09:19:15.655Z,17.01
2022-10-05T09:21:57.928Z,16.92
2022-10-05T09:24:31.743Z,16.83
2022-10-05T09:27:05.179Z,16.88
2022-10-05T09:30:08.219Z,16.98
2022-10-05T09:32:55.254Z,16.91
2022-10-05T09:35:40.372Z,17.00
2022-10-05T09:38:18.866Z,17.27
2022-10-05T09:41:23.209Z,17.65
2022-10-05T09:44:10.283Z,18.22
2022-10-05T09:46:54.535Z,18.86
2022-10-05T09:50:03.697Z,19.45
2022-10-05T09:52:46.764Z,19.71
2022-10-05T09:55:35.774Z,19.66
2022-10-05T09:59:03.754Z,19.69
2022-10-05T10:01:47.104Z,19.45
2022-10-05T10:04:40.422Z,18.97
2022-10-05T10:07:28.898Z,18.75
2022-10-05T10:10:19.971Z,18.45
2022-10-05T10:13:15.445Z,18.21
2022-10-05T10:16:02.345Z,18.06
2022-10-05T10:18:50.950Z,18.03
2022-10-05T10:21:35.654Z,18.03
2022-10-05T10:24:16.977Z,18.03
2022-10-05T10:27:16.510Z,18.04
2022-10-05T10:30:21.890Z,18.22
2022-10-05T10:33:13.738Z,18.29
2022-10-05T10:35:44.515Z,18.34
2022-10-05T10:38:31.001Z,18.38
2022-10-05T10:41:27.130Z,18.42
2022-10-05T10:44:25.870Z,18.47
2022-10-05T10:47:10.945Z,18.65
2022-10-05T10:49:58.596Z,19.02
2022-10-05T10:52:34.789Z,19.38
2022-10-05T10:55:35.353Z,19.72
2022-10-05T11:01:12.489Z,20.22
2022-10-05T11:04:00.018Z,20.29
2022-10-05T11:06:48.945Z,20.15
2022-10-05T11:09:32.306Z,19.96
2022-10-05T11:12:37.337Z,19.93
2022-10-05T11:15:31.958Z,20.29
2022-10-05T11:18:17.739Z,20.60
2022-10-05T11:21:02.728Z,20.64
2022-10-05T11:23:46.426Z,20.55
2022-10-05T11:26:32.687Z,20.74
2022-10-05T11:29:40.072Z,21.21
2022-10-05T11:32:27.733Z,21.08
2022-10-05T11:35:31.794Z,20.65
2022-10-05T11:38:12.306Z,20.47
2022-10-05T11:41:05.524Z,20.17
2022-10-05T11:44:06.309Z,19.95
2022-10-05T11:46:42.941Z,19.81
2022-10-05T11:49:30.490Z,19.81
2022-10-05T11:52:08.083Z,19.82
2022-10-05T11:55:16.384Z,19.65
2022-10-05T11:57:51.183Z,19.58
2022-10-05T12:00:22.192Z,19.47
2022-10-05T12:03:04.937Z,19.51
2022-10-05T12:05:41.656Z,19.66
2022-10-05T12:08:22.724Z,19.89
2022-10-05T12:11:05.289Z,20.12
2022-10-05T12:13:42.896Z,20.22
2022-10-05T12:16:18.245Z,20.13
2022-10-05T12:18:54.811Z,20.03
2022-10-05T12:21:32.561Z,19.93
2022-10-05T12:24:03.673Z,19.83
2022-10-05T12:26:36.368Z,19.96
2022-10-05T12:29:13.637Z,20.17
2022-10-05T12:31:48.833Z,20.29
2022-10-05T12:34:28.679Z,20.27
2022-10-05T12:37:04.010Z,20.20
2022-10-05T12:39:39.920Z,20.10
2022-10-05T12:42:17.941Z,20.05
2022-10-05T12:45:07.695Z,20.03
2022-10-05T12:47:50.315Z,19.96
2022-10-05T12:50:22.123Z,19.92
2022-10-05T12:53:17.725Z,19.87
2022-10-05T12:55:53.345Z,19.87
2022-10-05T12:58:32.772Z,19.81
2022-10-05T13:01:08.889Z,19.82
2022-10-05T13:03:40.459Z,19.75
2022-10-05T13:06:18.017Z,19.72
2022-10-05T13:08:51.423Z,19.72
2022-10-05T13:11:25.996Z,19.72
2022-10-05T13:14:01.591Z,19.69
2022-10-05T13:16:40.195Z,19.65
2022-10-05T13:19:23.648Z,19.64
2022-10-05T13:22:06.111Z,19.57
2022-10-05T13:24:36.945Z,19.47
2022-10-05T13:27:14.583Z,19.38
2022-10-05T13:29:54.310Z,19.30
2022-10-05T13:32:26.199Z,19.23
2022-10-05T13:35:04.217Z,19.20
2022-10-05T13:37:43.405Z,19.20
2022-10-05T13:40:24.629Z,19.14
2022-10-05T13:43:03.321Z,19.08
2022-10-05T13:45:43.188Z,18.97
2022-10-05T13:48:22.384Z,18.87
2022-10-05T13:50:56.508Z,18.89
2022-10-05T13:53:39.134Z,19.00
2022-10-05T13:56:13.645Z,19.00
2022-10-05T13:58:46.444Z,19.06
2022-10-05T14:01:17.554Z,19.10
2022-10-05T14:04:12.052Z,19.07
2022-10-05T14:06:40.280Z,19.10
2022-10-05T14:09:12.685Z,19.10
2022-10-05T14:11:49.550Z,19.10
2022-10-05T14:14:24.849Z,19.16
2022-10-05T14:16:55.038Z,19.20
2022-10-05T14:19:29.138Z,19.20
2022-10-05T14:22:02.125Z,19.23
2022-10-05T14:24:43.600Z,19.21
2022-10-05T14:27:21.928Z,19.20
2022-10-05T14:29:59.926Z,19.18
2022-10-05T14:32:31.668Z,19.16
2022-10-05T14:35:14.608Z,19.17
2022-10-05T14:37:50.784Z,19.16
2022-10-05T14:40:39.016Z,19.11
2022-10-05T14:43:21.736Z,19.10
2022-10-05T14:45:57.893Z,19.08
2022-10-05T14:48:28.321Z,19.10
2022-10-05T14:51:00.385Z,19.10
2022-10-05T14:53:39.233Z,19.04
2022-10-05T14:56:29.303Z,19.07
2022-10-05T14:59:22.176Z,19.07
2022-10-05T15:01:55.182Z,19.03
2022-10-05T15:04:31.995Z,19.00
2022-10-05T15:07:12.584Z,18.96
2022-10-05T15:09:51.131Z,18.93
2022-10-05T15:12:24.461Z,18.86
2022-10-05T15:14:53.888Z,18.79
2022-10-05T15:17:28.301Z,18.73
2022-10-05T15:20:05.178Z,18.69
2022-10-05T15:22:41.808Z,18.64
2022-10-05T15:25:17.384Z,18.59
2022-10-05T15:27:58.169Z,18.55
2022-10-05T15:30:27.130Z,18.51
2022-10-05T15:33:09.247Z,18.45
2022-10-05T15:36:04.357Z,18.41
2022-10-05T15:38:44.306Z,18.37
2022-10-05T15:41:17.155Z,18.34
2022-10-05T15:43:51.205Z,18.25
2022-10-05T15:46:26.144Z,18.14
2022-10-05T15:49:03.176Z,18.04
2022-10-05T15:51:45.220Z,17.91
2022-10-05T15:54:43.208Z,17.80
2022-10-05T15:57:19.558Z,17.72
2022-10-05T15:59:58.102Z,17.62
2022-10-05T16:02:32.116Z,17.59
2022-10-05T16:05:07.779Z,17.55
2022-10-05T16:07:58.497Z,17.45
2022-10-05T16:10:30.526Z,17.39
2022-10-05T16:13:08.161Z,17.34
2022-10-05T16:15:41.398Z,17.29
2022-10-05T16:18:40.730Z,17.24
2022-10-05T16:21:15.583Z,17.15
2022-10-05T16:23:52.854Z,17.05
2022-10-05T16:26:31.770Z,16.94
2022-10-05T16:29:04.643Z,16.85
2022-10-05T16:31:37.451Z,16.79
2022-10-05T16:34:18.359Z,16.71
2022-10-05T16:37:00.138Z,16.66
2022-10-05T16:39:45.417Z,16.62
2022-10-05T16:42:24.396Z,16.53
2022-10-05T16:44:59.635Z,16.44
2022-10-05T16:47:35.950Z,16.36
2022-10-05T16:50:13.493Z,16.33
2022-10-05T16:52:43.649Z,16.25
2022-10-05T16:55:14.240Z,16.21
2022-10-05T16:57:48.747Z,16.18
2022-10-05T17:00:21.028Z,16.09
2022-10-05T17:03:02.508Z,16.08
2022-10-05T17:05:40.956Z,16.04
2022-10-05T17:08:42.003Z,15.91
2022-10-05T17:11:22.227Z,15.85
2022-10-05T17:14:16.007Z,15.74
2022-10-05T17:16:55.447Z,15.63
2022-10-05T17:19:40.388Z,15.56
2022-10-05T17:22:12.800Z,15.47
2022-10-05T17:24:47.089Z,15.42
2022-10-05T17:27:22.575Z,15.36
2022-10-05T17:29:55.130Z,15.27
2022-10-05T17:32:42.345Z,15.20
2022-10-05T17:35:18.740Z,15.13
2022-10-05T17:38:09.445Z,15.10
2022-10-05T17:40:39.735Z,15.03
2022-10-05T17:43:26.961Z,14.96
2022-10-05T17:45:58.932Z,14.91
2022-10-05T17:49:06.827Z,14.84
2022-10-05T17:52:15.841Z,14.79
2022-10-05T17:55:19.826Z,14.74
2022-10-05T17:57:48.560Z,14.68
2022-10-05T18:00:35.656Z,14.69
2022-10-05T18:03:34.924Z,14.68
2022-10-05T18:06:43.280Z,14.67
2022-10-05T18:09:37.725Z,14.61
2022-10-05T18:12:25.825Z,14.57
2022-10-05T18:14:59.175Z,14.53
2022-10-05T18:17:45.388Z,14.50
2022-10-05T18:20:21.771Z,14.48
2022-10-05T18:22:50.649Z,14.45
2022-10-05T18:25:27.374Z,14.42
2022-10-05T18:28:06.463Z,14.38
2022-10-05T18:30:40.232Z,14.34
2022-10-05T18:33:35.562Z,14.28
2022-10-05T18:36:21.139Z,14.21
2022-10-05T18:38:53.787Z,14.16
2022-10-05T18:41:31.746Z,14.14
2022-10-05T18:44:17.593Z,14.13
2022-10-05T18:46:51.953Z,14.14
2022-10-05T18:49:50.289Z,14.19
2022-10-05T18:52:25.779Z,14.21
2022-10-05T18:55:00.575Z,14.33
2022-10-05T18:57:47.283Z,14.41
2022-10-05T19:00:19.146Z,14.51
2022-10-05T19:02:50.521Z,14.60
2022-10-05T19:08:33.605Z,14.68
2022-10-05T19:11:06.369Z,14.74
2022-10-05T19:13:42.824Z,14.72
2022-10-05T19:16:27.594Z,14.72
2022-10-05T19:19:09.401Z,14.67
2022-10-05T19:21:47.839Z,14.64
2022-10-05T19:24:31.179Z,14.71
2022-10-05T19:27:10.864Z,14.72
2022-10-05T19:29:48.482Z,14.71
2022-10-05T19:32:21.611Z,14.72
2022-10-05T19:35:10.467Z,14.75
2022-10-05T19:37:49.546Z,14.79
2022-10-05T19:40:24.655Z,14.81
2022-10-05T19:46:08.628Z,14.86
2022-10-05T19:48:44.443Z,14.91
2022-10-05T19:51:16.268Z,14.88
2022-10-05T19:53:50.213Z,14.85
2022-10-05T19:56:25.413Z,14.91
2022-10-05T19:58:56.520Z,14.96
2022-10-05T20:01:27.301Z,14.93
2022-10-05T20:03:57.639Z,14.95
2022-10-05T20:06:26.968Z,14.89
2022-10-05T20:09:00.246Z,14.88
2022-10-05T20:11:31.685Z,14.86
2022-10-05T20:14:29.995Z,14.89
2022-10-05T20:17:35.251Z,14.93
2022-10-05T20:20:25.928Z,14.96
2022-10-05T20:22:54.464Z,14.95
2022-10-05T20:25:32.680Z,14.96
2022-10-05T20:28:03.070Z,15.02
2022-10-05T20:30:34.026Z,15.07
2022-10-05T20:33:04.590Z,15.06
2022-10-05T20:35:33.721Z,15.09
2022-10-05T20:38:02.233Z,15.18
2022-10-05T20:40:30.984Z,15.20
2022-10-05T20:43:00.756Z,15.25
2022-10-05T20:45:31.542Z,15.25
2022-10-05T20:47:59.867Z,15.25
2022-10-05T20:50:28.197Z,15.25
2022-10-05T20:52:57.887Z,15.26
2022-10-05T20:55:31.390Z,15.30
2022-10-05T20:57:59.971Z,15.33
2022-10-05T21:00:52.434Z,15.32
2022-10-05T21:03:21.129Z,15.29
2022-10-05T21:05:49.264Z,15.26
2022-10-05T21:08:17.886Z,15.23
2022-10-05T21:10:46.617Z,15.25
2022-10-05T21:13:14.931Z,15.23
2022-10-05T21:15:44.420Z,15.23
2022-10-05T21:18:12.782Z,15.27
2022-10-05T21:20:41.259Z,15.32
2022-10-05T21:23:09.664Z,15.32
2022-10-05T21:25:38.502Z,15.33
2022-10-05T21:28:06.945Z,15.26
2022-10-05T21:30:35.053Z,15.26
2022-10-05T21:33:04.977Z,15.27
2022-10-05T21:35:33.541Z,15.32
2022-10-05T21:38:02.052Z,15.36
2022-10-05T21:40:32.035Z,15.40
2022-10-05T21:43:00.367Z,15.37
2022-10-05T21:45:29.615Z,15.40
2022-10-05T21:47:59.474Z,15.42
2022-10-05T21:50:30.069Z,15.40
2022-10-05T21:52:58.652Z,15.36
2022-10-05T21:55:27.180Z,15.35
2022-10-05T21:57:57.263Z,15.32
2022-10-05T22:00:25.491Z,15.30
2022-10-05T22:02:54.528Z,15.29
2022-10-05T22:05:23.750Z,15.26
2022-10-05T22:07:53.235Z,15.27
2022-10-05T22:10:21.573Z,15.26
2022-10-05T22:12:49.774Z,15.22
2022-10-05T22:15:18.510Z,15.20
2022-10-05T22:17:46.955Z,15.18
2022-10-05T22:20:15.980Z,15.18
2022-10-05T22:22:44.323Z,15.22
2022-10-05T22:25:17.376Z,15.25
2022-10-05T22:27:46.644Z,15.23
2022-10-05T22:30:15.916Z,15.20
2022-10-05T22:32:44.280Z,15.19
2022-10-05T22:35:13.049Z,15.16
2022-10-05T22:37:42.363Z,15.13
2022-10-05T22:40:12.096Z,15.16
2022-10-05T22:42:42.349Z,15.23
2022-10-05T22:45:10.655Z,15.22
2022-10-05T22:47:39.136Z,15.23
2022-10-05T22:50:09.497Z,15.26
2022-10-05T22:52:37.957Z,15.30
2022-10-05T22:55:07.300Z,15.33
2022-10-05T22:57:39.527Z,15.32
2022-10-05T23:00:11.952Z,15.32
2022-10-05T23:02:40.863Z,15.37
2022-10-05T23:05:10.921Z,15.37
2022-10-05T23:07:39.553Z,15.37
2022-10-05T23:10:11.932Z,15.42
2022-10-05T23:12:40.430Z,15.43
2022-10-05T23:15:12.241Z,15.44
2022-10-05T23:17:40.721Z,15.46
2022-10-05T23:20:09.584Z,15.53
2022-10-05T23:22:39.260Z,15.54
2022-10-05T23:25:09.816Z,15.58
2022-10-05T23:27:38.707Z,15.54
2022-10-05T23:30:11.051Z,15.53
2022-10-05T23:32:40.825Z,15.54
2022-10-05T23:35:10.057Z,15.44
2022-10-05T23:37:39.799Z,15.44
2022-10-05T23:40:12.415Z,15.43
2022-10-05T23:42:41.505Z,15.39
2022-10-05T23:45:13.711Z,15.35
2022-10-05T23:47:42.077Z,15.32
2022-10-05T23:50:10.993Z,15.33
2022-10-05T23:52:39.344Z,15.29
2022-10-05T23:55:09.777Z,15.26
2022-10-05T23:57:38.646Z,15.19
